sensor_id;sensor_type;location;lat;lon;timestamp;pressure;altitude;pressure_sealevel;temperature;humidity
30463;BME280;17256;43.618;25.336;2022-10-22T00:03:05;101467.50;;;7.90;100.00
30463;BME280;17256;43.618;25.336;2022-10-22T00:10:08;101024.97;;;5.39;100.00
30463;BME280;17256;43.618;25.336;2022-10-22T00:13:09;101095.41;;;5.70;100.00
30463;BME280;17256;43.618;25.336;2022-10-22T00:20:15;101020.16;;;5.33;100.00
30463;BME280;17256;43.618;25.336;2022-10-22T00:24:38;101286.59;;;6.91;100.00
30463;BME280;17256;43.618;25.336;2022-10-22T00:28:09;100989.22;;;4.89;100.00
30463;BME280;17256;43.618;25.336;2022-10-22T00:31:22;101134.56;;;5.96;100.00
30463;BME280;17256;43.618;25.336;2022-10-22T00:34:21;101450.34;;;7.80;100.00
30463;BME280;17256;43.618;25.336;2022-10-22T00:37:27;100943.19;;;4.78;100.00
30463;BME280;17256;43.618;25.336;2022-10-22T00:41:34;101152.16;;;6.02;100.00
30463;BME280;17256;43.618;25.336;2022-10-22T00:49:24;100961.84;;;4.90;100.00
30463;BME280;17256;43.618;25.336;2022-10-22T00:52:49;100936.06;;;4.67;100.00
30463;BME280;17256;43.618;25.336;2022-10-22T00:55:59;101429.91;;;7.66;100.00
30463;BME280;17256;43.618;25.336;2022-10-22T00:59:09;101161.72;;;6.06;100.00
30463;BME280;17256;43.618;25.336;2022-10-22T01:03:05;101438.06;;;7.58;100.00
30463;BME280;17256;43.618;25.336;2022-10-22T01:06:25;101148.19;;;5.69;100.00
30463;BME280;17256;43.618;25.336;2022-10-22T01:09:49;101446.59;;;7.55;100.00
30463;BME280;17256;43.618;25.336;2022-10-22T01:16:41;100931.13;;;4.35;100.00
30463;BME280;17256;43.618;25.336;2022-10-22T01:20:15;101442.94;;;7.47;100.00
30463;BME280;17256;43.618;25.336;2022-10-22T01:34:26;100946.63;;;4.52;100.00
30463;BME280;17256;43.618;25.336;2022-10-22T01:38:09;100938.22;;;4.46;100.00
30463;BME280;17256;43.618;25.336;2022-10-22T01:44:52;101409.81;;;7.50;100.00
30463;BME280;17256;43.618;25.336;2022-10-22T02:02:50;101228.34;;;6.03;100.00
30463;BME280;17256;43.618;25.336;2022-10-22T02:06:00;100966.53;;;4.53;100.00
30463;BME280;17256;43.618;25.336;2022-10-22T02:09:17;101321.16;;;6.65;100.00
30463;BME280;17256;43.618;25.336;2022-10-22T02:12:52;101406.34;;;7.22;100.00
30463;BME280;17256;43.618;25.336;2022-10-22T02:16:40;101394.84;;;7.18;100.00
30463;BME280;17256;43.618;25.336;2022-10-22T02:20:46;101232.22;;;6.18;100.00
30463;BME280;17256;43.618;25.336;2022-10-22T02:38:58;101394.41;;;7.05;100.00
30463;BME280;17256;43.618;25.336;2022-10-22T02:42:37;101101.94;;;5.41;100.00
30463;BME280;17256;43.618;25.336;2022-10-22T02:50:37;101392.38;;;7.07;100.00
30463;BME280;17256;43.618;25.336;2022-10-22T02:54:29;100922.50;;;4.12;100.00
30463;BME280;17256;43.618;25.336;2022-10-22T02:57:48;100956.84;;;4.41;100.00
30463;BME280;17256;43.618;25.336;2022-10-22T03:01:30;100905.50;;;4.10;100.00
30463;BME280;17256;43.618;25.336;2022-10-22T03:05:30;101393.19;;;6.99;100.00
30463;BME280;17256;43.618;25.336;2022-10-22T03:08:36;101093.75;;;5.23;100.00
30463;BME280;17256;43.618;25.336;2022-10-22T03:11:21;101210.16;;;5.94;100.00
30463;BME280;17256;43.618;25.336;2022-10-22T03:14:31;101117.56;;;5.21;100.00
30463;BME280;17256;43.618;25.336;2022-10-22T03:17:18;100974.16;;;4.49;100.00
30463;BME280;17256;43.618;25.336;2022-10-22T03:20:25;100946.97;;;4.40;100.00
30463;BME280;17256;43.618;25.336;2022-10-22T03:24:14;101372.09;;;7.09;100.00
30463;BME280;17256;43.618;25.336;2022-10-22T03:38:52;100855.50;;;4.21;100.00
30463;BME280;17256;43.618;25.336;2022-10-22T03:42:50;100900.13;;;4.46;100.00
30463;BME280;17256;43.618;25.336;2022-10-22T03:47:10;101352.66;;;7.13;100.00
30463;BME280;17256;43.618;25.336;2022-10-22T03:50:09;101366.41;;;7.21;100.00
30463;BME280;17256;43.618;25.336;2022-10-22T03:56:55;100899.44;;;4.44;100.00
30463;BME280;17256;43.618;25.336;2022-10-22T04:00:33;101243.47;;;6.51;100.00
30463;BME280;17256;43.618;25.336;2022-10-22T04:03:34;101352.25;;;7.25;100.00
30463;BME280;17256;43.618;25.336;2022-10-22T04:07:23;101346.94;;;7.24;100.00
30463;BME280;17256;43.618;25.336;2022-10-22T04:10:54;101347.09;;;7.22;100.00
30463;BME280;17256;43.618;25.336;2022-10-22T04:14:57;101359.59;;;7.25;100.00
30463;BME280;17256;43.618;25.336;2022-10-22T04:18:49;100986.44;;;4.99;100.00
30463;BME280;17256;43.618;25.336;2022-10-22T04:23:12;101077.28;;;5.61;100.00
30463;BME280;17256;43.618;25.336;2022-10-22T04:26:17;100968.47;;;5.06;100.00
30463;BME280;17256;43.618;25.336;2022-10-22T04:29:41;101213.50;;;6.59;100.00
30463;BME280;17256;43.618;25.336;2022-10-22T04:33:08;100936.44;;;5.00;100.00
30463;BME280;17256;43.618;25.336;2022-10-22T04:36:17;101381.72;;;7.65;100.00
30463;BME280;17256;43.618;25.336;2022-10-22T04:43:49;101014.91;;;5.57;100.00
30463;BME280;17256;43.618;25.336;2022-10-22T04:46:58;100899.81;;;4.76;100.00
30463;BME280;17256;43.618;25.336;2022-10-22T04:49:57;101398.13;;;7.65;100.00
30463;BME280;17256;43.618;25.336;2022-10-22T04:54:02;101412.41;;;7.33;100.00
30463;BME280;17256;43.618;25.336;2022-10-22T05:01:44;101411.03;;;7.55;100.00
30463;BME280;17256;43.618;25.336;2022-10-22T05:13:46;101062.25;;;5.92;100.00
30463;BME280;17256;43.618;25.336;2022-10-22T05:17:06;101407.88;;;7.94;100.00
30463;BME280;17256;43.618;25.336;2022-10-22T05:19:40;101015.31;;;5.63;100.00
30463;BME280;17256;43.618;25.336;2022-10-22T05:23:00;101414.56;;;7.99;100.00
30463;BME280;17256;43.618;25.336;2022-10-22T05:25:51;100910.50;;;4.95;100.00
30463;BME280;17256;43.618;25.336;2022-10-22T05:29:31;100990.94;;;5.43;100.00
30463;BME280;17256;43.618;25.336;2022-10-22T05:32:35;100979.03;;;5.44;100.00
30463;BME280;17256;43.618;25.336;2022-10-22T05:36:08;100962.47;;;5.38;100.00
30463;BME280;17256;43.618;25.336;2022-10-22T05:39:40;100988.88;;;5.81;100.00
30463;BME280;17256;43.618;25.336;2022-10-22T05:42:29;101126.59;;;6.72;100.00
30463;BME280;17256;43.618;25.336;2022-10-22T05:46:04;101132.78;;;6.83;100.00
30463;BME280;17256;43.618;25.336;2022-10-22T05:49:07;101031.53;;;6.08;100.00
30463;BME280;17256;43.618;25.336;2022-10-22T05:53:03;100924.84;;;5.59;100.00
30463;BME280;17256;43.618;25.336;2022-10-22T05:56:06;100988.19;;;6.23;100.00
30463;BME280;17256;43.618;25.336;2022-10-22T06:03:38;101121.28;;;6.97;100.00
30463;BME280;17256;43.618;25.336;2022-10-22T06:06:59;101362.38;;;8.27;100.00
30463;BME280;17256;43.618;25.336;2022-10-22T06:13:48;100984.66;;;6.04;100.00
30463;BME280;17256;43.618;25.336;2022-10-22T06:17:38;101414.16;;;8.62;100.00
30463;BME280;17256;43.618;25.336;2022-10-22T06:21:47;101384.59;;;8.90;100.00
30463;BME280;17256;43.618;25.336;2022-10-22T06:25:39;101385.47;;;9.07;100.00
30463;BME280;17256;43.618;25.336;2022-10-22T06:37:52;101186.84;;;7.97;100.00
30463;BME280;17256;43.618;25.336;2022-10-22T06:42:08;101138.97;;;8.10;100.00
30463;BME280;17256;43.618;25.336;2022-10-22T06:51:02;101394.28;;;9.91;100.00
30463;BME280;17256;43.618;25.336;2022-10-22T06:54:41;100945.88;;;7.52;100.00
30463;BME280;17256;43.618;25.336;2022-10-22T07:06:35;101120.69;;;8.26;100.00
30463;BME280;17256;43.618;25.336;2022-10-22T07:14:41;101379.03;;;10.97;100.00
30463;BME280;17256;43.618;25.336;2022-10-22T07:22:30;100991.00;;;10.43;100.00
30463;BME280;17256;43.618;25.336;2022-10-22T07:29:10;101392.56;;;12.12;100.00
30463;BME280;17256;43.618;25.336;2022-10-22T07:33:17;101284.63;;;11.87;100.00
30463;BME280;17256;43.618;25.336;2022-10-22T07:41:45;100917.28;;;9.87;100.00
30463;BME280;17256;43.618;25.336;2022-10-22T07:44:48;101365.75;;;12.50;100.00
30463;BME280;17256;43.618;25.336;2022-10-22T07:47:51;101308.00;;;11.91;100.00
30463;BME280;17256;43.618;25.336;2022-10-22T07:51:39;101370.88;;;12.53;100.00
30463;BME280;17256;43.618;25.336;2022-10-22T07:54:29;101373.47;;;12.40;100.00
30463;BME280;17256;43.618;25.336;2022-10-22T07:57:44;100969.59;;;10.24;100.00
30463;BME280;17256;43.618;25.336;2022-10-22T08:04:45;101299.25;;;12.17;100.00
30463;BME280;17256;43.618;25.336;2022-10-22T08:07:49;101070.09;;;10.92;100.00
30463;BME280;17256;43.618;25.336;2022-10-22T08:11:27;101376.53;;;13.23;100.00
30463;BME280;17256;43.618;25.336;2022-10-22T08:17:49;101090.31;;;12.35;95.70
30463;BME280;17256;43.618;25.336;2022-10-22T08:20:44;101259.78;;;13.44;93.30
30463;BME280;17256;43.618;25.336;2022-10-22T08:23:45;101199.53;;;12.92;92.07
30463;BME280;17256;43.618;25.336;2022-10-22T08:26:20;100961.59;;;11.66;91.71
30463;BME280;17256;43.618;25.336;2022-10-22T08:29:13;101301.66;;;13.54;91.87
30463;BME280;17256;43.618;25.336;2022-10-22T08:31:50;101240.03;;;13.41;89.38
30463;BME280;17256;43.618;25.336;2022-10-22T08:35:53;101361.97;;;14.27;88.76
30463;BME280;17256;43.618;25.336;2022-10-22T08:39:07;100944.47;;;12.20;84.77
30463;BME280;17256;43.618;25.336;2022-10-22T08:43:04;101352.50;;;15.23;82.53
30463;BME280;17256;43.618;25.336;2022-10-22T08:48:59;101011.69;;;13.49;79.42
30463;BME280;17256;43.618;25.336;2022-10-22T08:51:36;100913.13;;;13.17;77.96
30463;BME280;17256;43.618;25.336;2022-10-22T09:00:54;101168.91;;;15.56;71.75
30463;BME280;17256;43.618;25.336;2022-10-22T09:06:36;101191.88;;;15.76;73.15
30463;BME280;17256;43.618;25.336;2022-10-22T09:09:48;101061.13;;;15.16;72.48
30463;BME280;17256;43.618;25.336;2022-10-22T09:12:27;101099.41;;;15.26;70.26
30463;BME280;17256;43.618;25.336;2022-10-22T09:15:02;100993.00;;;14.70;70.55
30463;BME280;17256;43.618;25.336;2022-10-22T09:20:08;101308.72;;;17.26;68.89
30463;BME280;17256;43.618;25.336;2022-10-22T09:22:42;101298.84;;;17.30;69.20
30463;BME280;17256;43.618;25.336;2022-10-22T09:25:27;101174.09;;;16.67;67.82
30463;BME280;17256;43.618;25.336;2022-10-22T09:27:55;101173.13;;;16.79;66.04
30463;BME280;17256;43.618;25.336;2022-10-22T09:30:25;101277.03;;;17.08;71.49
30463;BME280;17256;43.618;25.336;2022-10-22T09:33:06;101121.53;;;15.84;74.77
30463;BME280;17256;43.618;25.336;2022-10-22T09:36:04;101304.75;;;16.83;75.76
30463;BME280;17256;43.618;25.336;2022-10-22T09:38:48;101056.97;;;15.45;74.99
30463;BME280;17256;43.618;25.336;2022-10-22T09:41:15;101305.97;;;16.94;73.51
30463;BME280;17256;43.618;25.336;2022-10-22T09:43:47;101088.84;;;15.67;71.65
30463;BME280;17256;43.618;25.336;2022-10-22T09:46:19;100949.97;;;14.81;70.18
30463;BME280;17256;43.618;25.336;2022-10-22T09:49:08;101305.66;;;16.77;72.01
30463;BME280;17256;43.618;25.336;2022-10-22T09:51:41;101145.72;;;16.02;71.68
30463;BME280;17256;43.618;25.336;2022-10-22T09:54:15;101152.00;;;15.84;70.45
30463;BME280;17256;43.618;25.336;2022-10-22T09:57:15;100908.53;;;13.90;70.50
30463;BME280;17256;43.618;25.336;2022-10-22T09:59:48;101132.19;;;15.80;70.14
30463;BME280;17256;43.618;25.336;2022-10-22T10:02:24;101036.28;;;15.92;67.72
30463;BME280;17256;43.618;25.336;2022-10-22T10:04:55;101027.28;;;16.22;67.56
30463;BME280;17256;43.618;25.336;2022-10-22T10:07:30;100931.34;;;16.03;64.71
30463;BME280;17256;43.618;25.336;2022-10-22T10:10:00;100914.25;;;16.06;64.07
30463;BME280;17256;43.618;25.336;2022-10-22T10:12:50;101288.50;;;18.05;64.75
30463;BME280;17256;43.618;25.336;2022-10-22T10:15:58;101005.19;;;16.15;63.33
30463;BME280;17256;43.618;25.336;2022-10-22T10:18:55;101292.56;;;17.41;65.28
30463;BME280;17256;43.618;25.336;2022-10-22T10:21:41;101286.03;;;17.78;65.47
30463;BME280;17256;43.618;25.336;2022-10-22T10:27:12;100943.47;;;16.26;62.37
30463;BME280;17256;43.618;25.336;2022-10-22T10:36:16;101273.44;;;18.91;62.20
30463;BME280;17256;43.618;25.336;2022-10-22T10:39:28;100903.69;;;16.94;59.71
30463;BME280;17256;43.618;25.336;2022-10-22T10:42:09;101130.38;;;18.15;59.29
30463;BME280;17256;43.618;25.336;2022-10-22T10:45:02;101251.56;;;19.06;59.65
30463;BME280;17256;43.618;25.336;2022-10-22T10:48:06;101248.31;;;19.21;58.68
30463;BME280;17256;43.618;25.336;2022-10-22T10:51:11;101250.94;;;19.04;58.49
30463;BME280;17256;43.618;25.336;2022-10-22T10:54:28;101230.88;;;19.14;58.42
30463;BME280;17256;43.618;25.336;2022-10-22T10:59:59;101226.38;;;18.89;59.43
30463;BME280;17256;43.618;25.336;2022-10-22T11:03:50;100892.41;;;17.49;58.84
30463;BME280;17256;43.618;25.336;2022-10-22T11:06:45;100792.91;;;17.22;57.47
30463;BME280;17256;43.618;25.336;2022-10-22T11:09:35;101178.06;;;19.30;57.25
30463;BME280;17256;43.618;25.336;2022-10-22T11:12:14;100766.53;;;16.90;58.28
30463;BME280;17256;43.618;25.336;2022-10-22T11:15:13;100808.03;;;17.62;58.20
30463;BME280;17256;43.618;25.336;2022-10-22T11:18:19;101164.00;;;19.84;56.60
30463;BME280;17256;43.618;25.336;2022-10-22T11:21:55;101183.19;;;19.97;56.50
30463;BME280;17256;43.618;25.336;2022-10-22T11:25:02;100826.91;;;17.83;56.14
30463;BME280;17256;43.618;25.336;2022-10-22T11:27:56;101150.75;;;20.19;55.63
30463;BME280;17256;43.618;25.336;2022-10-22T11:30:34;100900.31;;;18.57;55.24
30463;BME280;17256;43.618;25.336;2022-10-22T11:33:04;101028.69;;;19.24;55.01
30463;BME280;17256;43.618;25.336;2022-10-22T11:35:34;100920.50;;;18.76;56.02
30463;BME280;17256;43.618;25.336;2022-10-22T11:38:05;101039.75;;;19.59;54.69
30463;BME280;17256;43.618;25.336;2022-10-22T11:40:36;100705.16;;;17.45;54.68
30463;BME280;17256;43.618;25.336;2022-10-22T11:43:08;101124.81;;;20.19;54.73
30463;BME280;17256;43.618;25.336;2022-10-22T11:45:42;100886.50;;;18.86;53.88
30463;BME280;17256;43.618;25.336;2022-10-22T11:48:16;101121.06;;;20.42;54.09
30463;BME280;17256;43.618;25.336;2022-10-22T11:53:37;100977.56;;;19.71;54.18
30463;BME280;17256;43.618;25.336;2022-10-22T11:58:42;101100.41;;;21.10;53.23
30463;BME280;17256;43.618;25.336;2022-10-22T12:06:22;100969.97;;;20.67;52.30
30463;BME280;17256;43.618;25.336;2022-10-22T12:11:26;101100.06;;;21.45;52.03
30463;BME280;17256;43.618;25.336;2022-10-22T12:16:44;100867.09;;;19.81;52.81
30463;BME280;17256;43.618;25.336;2022-10-22T12:19:47;100692.69;;;18.63;52.72
30463;BME280;17256;43.618;25.336;2022-10-22T12:22:26;100687.06;;;18.46;52.73
30463;BME280;17256;43.618;25.336;2022-10-22T12:25:01;101102.38;;;20.93;53.47
30463;BME280;17256;43.618;25.336;2022-10-22T12:27:39;101005.84;;;20.41;53.13
30463;BME280;17256;43.618;25.336;2022-10-22T12:30:32;101001.44;;;20.62;52.69
30463;BME280;17256;43.618;25.336;2022-10-22T12:33:07;101071.50;;;21.38;52.54
30463;BME280;17256;43.618;25.336;2022-10-22T12:40:42;101075.81;;;21.50;52.11
30463;BME280;17256;43.618;25.336;2022-10-22T12:43:16;100971.31;;;20.64;52.80
30463;BME280;17256;43.618;25.336;2022-10-22T12:45:45;101065.66;;;21.23;53.38
30463;BME280;17256;43.618;25.336;2022-10-22T12:48:51;101064.16;;;21.15;53.15
30463;BME280;17256;43.618;25.336;2022-10-22T12:51:22;100659.47;;;18.73;53.24
30463;BME280;17256;43.618;25.336;2022-10-22T12:54:32;100676.59;;;18.98;53.13
30463;BME280;17256;43.618;25.336;2022-10-22T12:57:25;100641.97;;;18.89;52.62
30463;BME280;17256;43.618;25.336;2022-10-22T12:59:58;100924.25;;;20.73;52.70
30463;BME280;17256;43.618;25.336;2022-10-22T13:02:37;100777.75;;;19.88;52.26
30463;BME280;17256;43.618;25.336;2022-10-22T13:08:04;101038.28;;;21.03;53.25
30463;BME280;17256;43.618;25.336;2022-10-22T13:10:37;100732.28;;;19.15;53.67
30463;BME280;17256;43.618;25.336;2022-10-22T13:13:31;100767.47;;;19.38;53.49
30463;BME280;17256;43.618;25.336;2022-10-22T13:16:23;101019.47;;;20.76;53.90
30463;BME280;17256;43.618;25.336;2022-10-22T13:19:31;101013.19;;;20.64;54.11
30463;BME280;17256;43.618;25.336;2022-10-22T13:25:36;100670.78;;;18.55;53.84
30463;BME280;17256;43.618;25.336;2022-10-22T13:28:23;100614.41;;;18.42;53.72
30463;BME280;17256;43.618;25.336;2022-10-22T13:31:07;101008.81;;;20.90;53.45
30463;BME280;17256;43.618;25.336;2022-10-22T13:33:38;100690.66;;;18.75;53.52
30463;BME280;17256;43.618;25.336;2022-10-22T13:36:15;100986.66;;;20.45;53.59
30463;BME280;17256;43.618;25.336;2022-10-22T13:38:56;100633.09;;;18.30;53.84
30463;BME280;17256;43.618;25.336;2022-10-22T13:41:37;100649.47;;;18.43;54.00
30463;BME280;17256;43.618;25.336;2022-10-22T13:44:16;100928.81;;;20.23;53.78
30463;BME280;17256;43.618;25.336;2022-10-22T13:47:27;101023.97;;;20.77;53.60
30463;BME280;17256;43.618;25.336;2022-10-22T13:51:32;100986.66;;;20.83;54.00
30463;BME280;17256;43.618;25.336;2022-10-22T13:57:37;100561.66;;;18.14;54.15
30463;BME280;17256;43.618;25.336;2022-10-22T14:01:24;100573.84;;;18.30;54.48
30463;BME280;17256;43.618;25.336;2022-10-22T14:04:09;100989.38;;;20.78;56.27
30463;BME280;17256;43.618;25.336;2022-10-22T14:06:39;100983.97;;;20.72;55.67
30463;BME280;17256;43.618;25.336;2022-10-22T14:09:30;100598.03;;;18.29;55.37
30463;BME280;17256;43.618;25.336;2022-10-22T14:12:49;100896.31;;;20.12;55.28
30463;BME280;17256;43.618;25.336;2022-10-22T14:15:32;100594.16;;;18.30;56.03
30463;BME280;17256;43.618;25.336;2022-10-22T14:18:59;100974.53;;;20.56;55.94
30463;BME280;17256;43.618;25.336;2022-10-22T14:21:55;100762.06;;;19.15;55.65
30463;BME280;17256;43.618;25.336;2022-10-22T14:25:20;100718.16;;;18.71;55.55
30463;BME280;17256;43.618;25.336;2022-10-22T14:28:12;100870.47;;;19.66;56.59
30463;BME280;17256;43.618;25.336;2022-10-22T14:31:04;100742.84;;;18.68;56.28
30463;BME280;17256;43.618;25.336;2022-10-22T14:33:46;100842.09;;;19.36;57.62
30463;BME280;17256;43.618;25.336;2022-10-22T14:37:48;100989.75;;;19.98;57.13
30463;BME280;17256;43.618;25.336;2022-10-22T14:41:22;100725.47;;;18.21;60.15
30463;BME280;17256;43.618;25.336;2022-10-22T14:45:16;100569.38;;;17.32;61.23
30463;BME280;17256;43.618;25.336;2022-10-22T14:48:09;100805.97;;;18.56;59.82
30463;BME280;17256;43.618;25.336;2022-10-22T14:50:50;100581.25;;;17.15;61.39
30463;BME280;17256;43.618;25.336;2022-10-22T14:54:33;100985.91;;;19.71;61.06
30463;BME280;17256;43.618;25.336;2022-10-22T14:57:16;100740.63;;;18.13;61.00
30463;BME280;17256;43.618;25.336;2022-10-22T15:03:34;100956.88;;;19.26;62.17
30463;BME280;17256;43.618;25.336;2022-10-22T15:07:17;100906.31;;;18.89;63.04
30463;BME280;17256;43.618;25.336;2022-10-22T15:10:16;100738.50;;;17.80;62.64
30463;BME280;17256;43.618;25.336;2022-10-22T15:13:38;100978.03;;;19.11;63.35
30463;BME280;17256;43.618;25.336;2022-10-22T15:17:13;100682.94;;;17.10;64.13
30463;BME280;17256;43.618;25.336;2022-10-22T15:21:13;100817.97;;;17.81;64.87
30463;BME280;17256;43.618;25.336;2022-10-22T15:24:21;100992.34;;;18.91;64.70
30463;BME280;17256;43.618;25.336;2022-10-22T15:27:36;100770.59;;;17.41;64.89
30463;BME280;17256;43.618;25.336;2022-10-22T15:30:58;100742.09;;;17.10;66.61
30463;BME280;17256;43.618;25.336;2022-10-22T15:33:29;100922.72;;;18.04;67.38
30463;BME280;17256;43.618;25.336;2022-10-22T15:36:12;100648.47;;;16.52;66.68
30463;BME280;17256;43.618;25.336;2022-10-22T15:39:07;100988.59;;;18.50;68.70
30463;BME280;17256;43.618;25.336;2022-10-22T15:41:54;100727.28;;;16.75;69.97
30463;BME280;17256;43.618;25.336;2022-10-22T15:45:05;100972.63;;;18.34;70.71
30463;BME280;17256;43.618;25.336;2022-10-22T15:47:55;100745.66;;;16.87;69.34
30463;BME280;17256;43.618;25.336;2022-10-22T15:50:40;100599.25;;;15.64;67.67
30463;BME280;17256;43.618;25.336;2022-10-22T15:53:28;100553.38;;;15.50;68.85
30463;BME280;17256;43.618;25.336;2022-10-22T15:56:00;100983.13;;;17.97;69.32
30463;BME280;17256;43.618;25.336;2022-10-22T15:58:54;101013.34;;;18.05;69.36
30463;BME280;17256;43.618;25.336;2022-10-22T16:01:24;100735.69;;;16.38;69.63
30463;BME280;17256;43.618;25.336;2022-10-22T16:04:00;100573.69;;;15.44;69.85
30463;BME280;17256;43.618;25.336;2022-10-22T16:06:41;100901.09;;;17.41;70.81
30463;BME280;17256;43.618;25.336;2022-10-22T16:09:19;100868.66;;;17.11;70.25
30463;BME280;17256;43.618;25.336;2022-10-22T16:11:48;100773.84;;;16.54;70.60
30463;BME280;17256;43.618;25.336;2022-10-22T16:14:21;100789.38;;;16.55;71.61
30463;BME280;17256;43.618;25.336;2022-10-22T16:16:52;101008.19;;;17.78;71.62
30463;BME280;17256;43.618;25.336;2022-10-22T16:19:22;100988.50;;;17.68;71.40
30463;BME280;17256;43.618;25.336;2022-10-22T16:21:51;100551.56;;;14.89;70.02
30463;BME280;17256;43.618;25.336;2022-10-22T16:24:19;100805.50;;;16.47;70.09
30463;BME280;17256;43.618;25.336;2022-10-22T16:27:12;101033.75;;;17.39;72.01
30463;BME280;17256;43.618;25.336;2022-10-22T16:30:33;100863.88;;;16.52;73.59
30463;BME280;17256;43.618;25.336;2022-10-22T16:34:39;100974.13;;;17.11;72.77
30463;BME280;17256;43.618;25.336;2022-10-22T16:37:26;100673.38;;;15.19;73.52
30463;BME280;17256;43.618;25.336;2022-10-22T16:44:51;100554.75;;;14.11;73.72
30463;BME280;17256;43.618;25.336;2022-10-22T16:47:47;100601.34;;;14.33;72.01
30463;BME280;17256;43.618;25.336;2022-10-22T16:50:29;100861.63;;;15.87;70.98
30463;BME280;17256;43.618;25.336;2022-10-22T16:57:36;100664.72;;;14.59;69.95
30463;BME280;17256;43.618;25.336;2022-10-22T17:26:46;100983.06;;;16.95;66.85
30463;BME280;17256;43.618;25.336;2022-10-22T17:34:51;100567.47;;;14.51;66.34
30463;BME280;17256;43.618;25.336;2022-10-22T17:38:38;100987.66;;;17.01;66.73
30463;BME280;17256;43.618;25.336;2022-10-22T18:00:26;100588.41;;;14.58;71.02
30463;BME280;17256;43.618;25.336;2022-10-22T18:15:19;100652.28;;;14.50;74.02
30463;BME280;17256;43.618;25.336;2022-10-22T18:18:26;100978.13;;;16.36;75.60
30463;BME280;17256;43.618;25.336;2022-10-22T18:21:34;100975.88;;;16.26;75.94
30463;BME280;17256;43.618;25.336;2022-10-22T18:24:02;100963.56;;;16.22;76.21
30463;BME280;17256;43.618;25.336;2022-10-22T18:26:35;100966.78;;;16.19;75.38
30463;BME280;17256;43.618;25.336;2022-10-22T18:29:03;100674.22;;;14.45;74.85
30463;BME280;17256;43.618;25.336;2022-10-22T18:31:30;100832.00;;;15.38;75.10
30463;BME280;17256;43.618;25.336;2022-10-22T18:33:59;100815.53;;;15.18;73.99
30463;BME280;17256;43.618;25.336;2022-10-22T18:36:28;100514.28;;;13.29;73.39
30463;BME280;17256;43.618;25.336;2022-10-22T18:39:29;100859.53;;;15.26;73.43
30463;BME280;17256;43.618;25.336;2022-10-22T18:41:57;100873.91;;;15.42;75.03
30463;BME280;17256;43.618;25.336;2022-10-22T18:44:25;100972.09;;;15.95;76.67
30463;BME280;17256;43.618;25.336;2022-10-22T18:46:54;100709.53;;;14.30;77.35
30463;BME280;17256;43.618;25.336;2022-10-22T18:49:21;100971.34;;;15.82;78.60
30463;BME280;17256;43.618;25.336;2022-10-22T18:51:47;100714.00;;;14.31;77.73
30463;BME280;17256;43.618;25.336;2022-10-22T18:54:24;100563.94;;;13.29;77.76
30463;BME280;17256;43.618;25.336;2022-10-22T18:56:53;100887.25;;;15.20;78.46
30463;BME280;17256;43.618;25.336;2022-10-22T18:59:22;100692.56;;;13.88;78.60
30463;BME280;17256;43.618;25.336;2022-10-22T19:01:52;100983.63;;;15.61;79.93
30463;BME280;17256;43.618;25.336;2022-10-22T19:04:29;100754.66;;;14.10;78.57
30463;BME280;17256;43.618;25.336;2022-10-22T19:07:03;100583.50;;;13.01;78.45
30463;BME280;17256;43.618;25.336;2022-10-22T19:09:33;100737.03;;;14.11;80.47
30463;BME280;17256;43.618;25.336;2022-10-22T19:12:00;100712.91;;;13.94;79.09
30463;BME280;17256;43.618;25.336;2022-10-22T19:14:30;100536.25;;;12.84;78.35
30463;BME280;17256;43.618;25.336;2022-10-22T19:16:57;100721.41;;;13.92;77.92
30463;BME280;17256;43.618;25.336;2022-10-22T19:19:27;100553.19;;;13.01;77.67
30463;BME280;17256;43.618;25.336;2022-10-22T19:21:55;100787.50;;;14.45;77.49
30463;BME280;17256;43.618;25.336;2022-10-22T19:24:52;100522.53;;;12.71;78.43
30463;BME280;17256;43.618;25.336;2022-10-22T19:27:28;100977.09;;;15.49;78.67
30463;BME280;17256;43.618;25.336;2022-10-22T19:30:10;100505.38;;;12.69;78.01
30463;BME280;17256;43.618;25.336;2022-10-22T19:33:11;100949.88;;;15.46;77.66
30463;BME280;17256;43.618;25.336;2022-10-22T19:36:51;100828.72;;;14.91;80.91
30463;BME280;17256;43.618;25.336;2022-10-22T19:42:45;100926.44;;;15.48;79.33
30463;BME280;17256;43.618;25.336;2022-10-22T19:45:23;100501.31;;;12.78;79.67
30463;BME280;17256;43.618;25.336;2022-10-22T19:51:20;100612.72;;;13.29;81.83
30463;BME280;17256;43.618;25.336;2022-10-22T19:54:44;100735.63;;;13.96;83.95
30463;BME280;17256;43.618;25.336;2022-10-22T19:57:17;100754.03;;;14.08;84.39
30463;BME280;17256;43.618;25.336;2022-10-22T19:59:55;100976.44;;;15.15;86.09
30463;BME280;17256;43.618;25.336;2022-10-22T20:02:51;100936.91;;;15.01;85.77
30463;BME280;17256;43.618;25.336;2022-10-22T20:05:42;100947.59;;;14.98;86.57
30463;BME280;17256;43.618;25.336;2022-10-22T20:08:35;100809.47;;;14.20;87.15
30463;BME280;17256;43.618;25.336;2022-10-22T20:11:28;100523.41;;;12.39;88.27
30463;BME280;17256;43.618;25.336;2022-10-22T20:20:43;100849.16;;;14.32;89.71
30463;BME280;17256;43.618;25.336;2022-10-22T20:23:31;100950.88;;;14.75;90.04
30463;BME280;17256;43.618;25.336;2022-10-22T20:26:32;100849.63;;;14.09;90.39
30463;BME280;17256;43.618;25.336;2022-10-22T20:29:40;100945.38;;;14.62;92.21
30463;BME280;17256;43.618;25.336;2022-10-22T20:32:18;100565.56;;;12.19;93.38
30463;BME280;17256;43.618;25.336;2022-10-22T20:35:17;100949.41;;;14.59;93.43